createdAt,value
2018-03-16T00:03:41.419Z,17.23
2018-03-16T00:08:42.362Z,17.27
2018-03-16T00:13:43.304Z,18.20
2018-03-16T00:18:44.425Z,12.80
2018-03-16T00:23:45.327Z,17.47
2018-03-16T00:28:46.628Z,18.03
2018-03-16T00:33:47.541Z,12.60
2018-03-16T00:38:48.507Z,13.60
2018-03-16T00:43:49.457Z,17.63
2018-03-16T00:48:50.393Z,24.97
2018-03-16T00:53:51.588Z,19.70
2018-03-16T00:58:52.519Z,22.40
2018-03-16T01:03:53.455Z,20.67
2018-03-16T01:08:54.412Z,18.93
2018-03-16T01:13:55.354Z,22.67
2018-03-16T01:18:56.284Z,18.03
2018-03-16T01:23:57.221Z,20.73
2018-03-16T01:28:58.143Z,24.73
2018-03-16T01:33:59.063Z,18.27
2018-03-16T01:39:00.077Z,19.20
2018-03-16T01:44:01.013Z,21.37
2018-03-16T01:49:01.936Z,20.87
2018-03-16T01:54:02.880Z,22.50
2018-03-16T01:59:03.800Z,27.50
2018-03-16T02:04:04.719Z,21.43
2018-03-16T02:09:05.657Z,22.03
2018-03-16T02:14:06.597Z,18.30
2018-03-16T02:19:07.551Z,22.63
2018-03-16T02:24:08.680Z,24.67
2018-03-16T02:29:09.602Z,26.43
2018-03-16T02:34:10.842Z,20.90
2018-03-16T02:39:11.815Z,30.30
2018-03-16T02:44:12.750Z,15.03
2018-03-16T02:49:13.729Z,22.97
2018-03-16T02:54:14.681Z,18.03
2018-03-16T02:59:15.642Z,15.33
2018-03-16T03:04:16.580Z,15.70
2018-03-16T03:09:17.534Z,11.37
2018-03-16T03:14:18.464Z,14.77
2018-03-16T03:19:19.385Z,13.67
2018-03-16T03:24:20.309Z,10.13
2018-03-16T03:29:21.230Z,15.23
2018-03-16T03:34:22.175Z,11.27
2018-03-16T03:39:23.116Z,13.20
2018-03-16T03:44:24.048Z,21.30
2018-03-16T03:49:25.002Z,8.03
2018-03-16T03:54:25.933Z,13.70
2018-03-16T03:59:26.871Z,8.63
2018-03-16T04:04:27.822Z,12.33
2018-03-16T04:09:28.732Z,7.73
2018-03-16T04:14:29.674Z,11.00
2018-03-16T04:19:30.605Z,11.60
2018-03-16T04:24:31.522Z,9.30
2018-03-16T04:29:32.734Z,12.93
2018-03-16T04:34:33.655Z,12.60
2018-03-16T04:39:34.608Z,4.87
2018-03-16T04:44:35.526Z,6.37
2018-03-16T04:49:36.481Z,11.90
2018-03-16T04:54:37.410Z,5.20
2018-03-16T04:59:38.339Z,7.87
2018-03-16T05:04:39.278Z,8.37
2018-03-16T05:09:40.188Z,2.80
2018-03-16T05:14:41.114Z,4.10
2018-03-16T05:19:42.047Z,5.80
2018-03-16T05:24:42.987Z,14.70
2018-03-16T05:29:43.922Z,8.43
2018-03-16T05:34:44.842Z,7.00
2018-03-16T05:39:45.801Z,14.50
2018-03-16T05:44:46.721Z,2.47
2018-03-16T05:49:47.659Z,5.57
2018-03-16T05:54:48.584Z,14.43
2018-03-16T05:59:49.506Z,12.47
2018-03-16T06:04:50.441Z,4.97
2018-03-16T06:09:51.388Z,8.97
2018-03-16T06:14:52.331Z,11.13
2018-03-16T06:19:53.266Z,8.83
2018-03-16T06:24:54.204Z,13.17
2018-03-16T06:29:55.127Z,12.03
2018-03-16T06:34:56.050Z,7.50
2018-03-16T06:39:57.034Z,7.63
2018-03-16T06:44:58.106Z,9.23
2018-03-16T06:49:58.959Z,4.73
2018-03-16T06:54:59.889Z,7.80
2018-03-16T07:00:01.158Z,10.20
2018-03-16T07:05:02.403Z,9.30
2018-03-16T07:10:03.600Z,17.23
2018-03-16T07:20:42.177Z,6.03
2018-03-16T07:25:43.105Z,9.03
2018-03-16T07:30:44.048Z,3.67
2018-03-16T07:35:44.971Z,12.10
2018-03-16T07:40:46.194Z,13.13
2018-03-16T07:45:53.248Z,8.33
2018-03-16T07:50:54.205Z,11.83
2018-03-16T07:55:55.120Z,7.20
2018-03-16T08:00:56.074Z,3.57
2018-03-16T08:05:56.991Z,9.03
2018-03-16T08:10:57.915Z,8.07
2018-03-16T08:15:58.844Z,11.27
2018-03-16T08:20:59.806Z,7.73
2018-03-16T08:26:00.736Z,3.93
2018-03-16T08:31:01.705Z,8.97
2018-03-16T08:36:02.645Z,11.73
2018-03-16T08:41:03.616Z,5.67
2018-03-16T08:46:04.598Z,11.93
2018-03-16T08:51:05.512Z,8.83
2018-03-16T08:56:06.450Z,21.17
2018-03-16T09:01:07.398Z,5.73
2018-03-16T09:06:08.332Z,10.07
2018-03-16T09:11:09.282Z,7.73
2018-03-16T09:16:10.232Z,2.40
2018-03-16T09:21:11.156Z,8.63
2018-03-16T09:26:12.078Z,7.93
2018-03-16T09:31:13.001Z,15.57
2018-03-16T09:36:13.936Z,7.80
2018-03-16T09:41:14.943Z,8.10
2018-03-16T09:46:15.883Z,6.17
2018-03-16T09:51:16.830Z,12.10
2018-03-16T09:56:17.842Z,9.80
2018-03-16T10:01:18.754Z,9.33
2018-03-16T10:06:19.694Z,19.83
2018-03-16T10:11:20.676Z,6.97
2018-03-16T10:16:21.585Z,10.50
2018-03-16T10:21:22.524Z,9.00
2018-03-16T10:26:24.377Z,8.43
2018-03-16T10:31:25.314Z,4.40
2018-03-16T10:36:26.266Z,4.67
2018-03-16T10:41:27.542Z,6.60
2018-03-16T10:46:28.462Z,14.77
2018-03-16T10:51:29.840Z,4.50
2018-03-16T10:56:30.786Z,13.97
2018-03-16T11:01:37.797Z,10.63
2018-03-16T11:06:38.753Z,5.30
2018-03-16T11:11:39.706Z,9.80
2018-03-16T11:16:40.678Z,6.93
2018-03-16T11:21:41.593Z,7.23
2018-03-16T11:26:42.549Z,6.40
2018-03-16T11:31:43.492Z,15.17
2018-03-16T11:36:44.424Z,17.33
2018-03-16T11:41:45.414Z,4.93
2018-03-16T11:46:46.363Z,2.27
2018-03-16T11:51:47.308Z,5.33
2018-03-16T11:56:48.240Z,5.87
2018-03-16T12:01:49.562Z,3.23
2018-03-16T12:06:50.536Z,7.17
2018-03-16T12:11:51.473Z,6.53
2018-03-16T12:16:52.421Z,6.50
2018-03-16T12:21:53.436Z,11.13
2018-03-16T12:26:54.375Z,3.07
2018-03-16T12:31:55.317Z,5.90
2018-03-16T12:36:56.275Z,11.30
2018-03-16T12:41:57.261Z,8.97
2018-03-16T12:46:58.193Z,6.10
2018-03-16T12:51:59.142Z,12.60
2018-03-16T12:57:00.085Z,4.17
2018-03-16T13:02:01.012Z,10.07
2018-03-16T13:07:01.949Z,5.90
2018-03-16T13:12:02.915Z,12.57
2018-03-16T13:17:03.863Z,9.00
2018-03-16T13:22:04.822Z,6.13
2018-03-16T13:27:05.788Z,6.80
2018-03-16T13:32:06.744Z,4.87
2018-03-16T13:37:07.697Z,8.67
2018-03-16T13:42:09.230Z,11.50
2018-03-16T13:47:10.181Z,3.83
2018-03-16T13:52:11.146Z,4.97
2018-03-16T13:57:12.095Z,8.83
2018-03-16T14:02:13.066Z,3.00
2018-03-16T14:07:13.999Z,17.07
2018-03-16T14:12:14.975Z,8.27
2018-03-16T14:17:15.893Z,4.13
2018-03-16T14:22:16.864Z,8.83
2018-03-16T14:27:17.851Z,6.87
2018-03-16T14:32:18.854Z,21.40
2018-03-16T14:37:19.821Z,8.63
2018-03-16T14:42:20.792Z,6.20
2018-03-16T14:47:21.776Z,15.90
2018-03-16T14:52:22.748Z,4.63
2018-03-16T14:57:23.731Z,6.70
2018-03-16T15:02:24.661Z,4.40
2018-03-16T15:07:25.630Z,4.30
2018-03-16T15:12:26.576Z,3.83
2018-03-16T15:17:27.541Z,5.27
2018-03-16T15:22:28.492Z,3.63
2018-03-16T15:27:29.495Z,3.00
2018-03-16T15:32:30.470Z,6.40
2018-03-16T15:37:31.450Z,3.83
2018-03-16T15:42:32.441Z,5.40
2018-03-16T15:47:33.425Z,12.23
2018-03-16T15:52:34.447Z,6.17
2018-03-16T15:57:35.359Z,5.37
2018-03-16T16:02:36.312Z,7.50
2018-03-16T16:07:37.273Z,5.17
2018-03-16T16:12:38.264Z,2.50
2018-03-16T16:17:39.256Z,3.97
2018-03-16T16:22:40.243Z,11.57
2018-03-16T16:27:41.242Z,4.40
2018-03-16T16:32:42.217Z,3.43
2018-03-16T16:37:43.165Z,7.03
2018-03-16T16:42:44.185Z,4.93
2018-03-16T16:47:45.203Z,9.43
2018-03-16T16:52:46.168Z,7.50
2018-03-16T16:57:47.250Z,5.73
2018-03-16T17:02:48.266Z,4.30
2018-03-16T17:07:49.277Z,4.90
2018-03-16T17:12:50.241Z,8.63
2018-03-16T17:17:51.234Z,8.23
2018-03-16T17:22:52.205Z,6.37
2018-03-16T17:27:53.485Z,10.87
2018-03-16T17:32:54.482Z,15.23
2018-03-16T17:37:55.446Z,10.10
2018-03-16T17:42:56.438Z,3.80
2018-03-16T17:47:57.433Z,5.00
2018-03-16T17:52:58.421Z,2.20
2018-03-16T17:57:59.408Z,5.00
2018-03-16T18:03:00.366Z,6.93
2018-03-16T18:08:01.359Z,3.70
2018-03-16T18:13:02.288Z,6.20
2018-03-16T18:18:03.254Z,3.57
2018-03-16T18:23:04.239Z,7.93
2018-03-16T18:28:05.190Z,3.17
2018-03-16T18:33:06.164Z,5.63
2018-03-16T18:38:07.194Z,4.83
2018-03-16T18:43:08.227Z,8.00
2018-03-16T18:48:09.206Z,9.50
2018-03-16T18:53:10.546Z,6.23
2018-03-16T18:58:11.514Z,8.17
2018-03-16T19:03:12.495Z,6.27
2018-03-16T19:08:13.461Z,12.33
2018-03-16T19:13:14.431Z,4.27
2018-03-16T19:18:15.447Z,4.07
2018-03-16T19:23:16.401Z,5.23
2018-03-16T19:28:17.361Z,6.13
2018-03-16T19:33:18.359Z,2.97
2018-03-16T19:38:19.321Z,3.60
2018-03-16T19:43:20.332Z,8.67
2018-03-16T19:48:21.329Z,2.63
2018-03-16T19:53:22.351Z,10.50
2018-03-16T19:58:23.339Z,10.63
2018-03-16T20:03:24.291Z,4.93
2018-03-16T20:08:25.309Z,7.27
2018-03-16T20:13:26.259Z,4.03
2018-03-16T20:18:27.201Z,7.40
2018-03-16T20:23:28.199Z,5.23
2018-03-16T20:28:29.210Z,3.97
2018-03-16T20:33:30.210Z,3.20
2018-03-16T20:38:31.190Z,6.20
2018-03-16T20:43:32.222Z,11.63
2018-03-16T20:48:33.173Z,7.93
2018-03-16T20:53:34.197Z,3.87
2018-03-16T20:58:35.349Z,7.03
2018-03-16T21:03:36.365Z,10.27
2018-03-16T21:08:37.332Z,6.43
2018-03-16T21:13:38.309Z,8.50
2018-03-16T21:18:39.311Z,5.10
2018-03-16T21:23:40.281Z,7.63
2018-03-16T21:28:41.260Z,10.27
2018-03-16T21:33:42.253Z,2.73
2018-03-16T21:38:43.208Z,5.60
2018-03-16T21:43:44.227Z,4.57
2018-03-16T21:48:45.218Z,7.93
2018-03-16T21:53:46.238Z,5.07
2018-03-16T21:58:47.201Z,6.50
2018-03-16T22:03:48.190Z,5.77
2018-03-16T22:08:49.181Z,5.80
2018-03-16T22:13:50.135Z,6.83
2018-03-16T22:18:51.135Z,6.37
2018-03-16T22:23:52.094Z,8.03
2018-03-16T22:28:53.031Z,6.47
2018-03-16T22:33:53.997Z,4.53
2018-03-16T22:38:54.997Z,9.83
2018-03-16T22:43:56.041Z,12.83
2018-03-16T22:48:57.027Z,4.97
2018-03-16T22:53:58.281Z,3.53
2018-03-16T22:58:59.276Z,3.03
2018-03-16T23:04:00.221Z,3.53
2018-03-16T23:09:01.161Z,10.70
2018-03-16T23:14:02.164Z,16.70
2018-03-16T23:19:03.087Z,13.03
2018-03-16T23:24:04.022Z,3.53
2018-03-16T23:29:04.974Z,6.30
2018-03-16T23:34:05.920Z,6.10
2018-03-16T23:39:06.888Z,2.33
2018-03-16T23:44:07.877Z,6.40
2018-03-16T23:49:08.837Z,2.50
2018-03-16T23:54:09.821Z,3.30
2018-03-16T23:59:10.782Z,5.47
